Bredlow Corner, Arkansas
Current Conditions -  °F | °C
As of 6:15 AM on Thursday 18 Dec 2014 (Local Time) from KSGT Reporting Station
Overcast Overcast  
Wind Chill: 33°   Ceiling: 2500
Heat Index: 37°   Visibility: 10mi
Dew Point: 36°   Wind: 6mph
Humidity: 93%   Direction: 90°E
Pressure: 30.22"   Gusts: NA
Location:  34.5894°N, 91.9107°W
Report Text: KSGT 181215Z AUTO 09005KT 10SM BKN025 OVC035 03/02 A3022 RMK AO1
Loading
Personal Weather Stations






























Interactive Weather Map New forecast layout! Learn more

10-Day Weather Forecast

Advertisements
Track Severe Weather on mobile